Greenwood, New York
Current Conditions -  °F | °C
As of 8:32 PM on Thursday 27 Nov 2014 (Local Time) from KELZ Reporting Station
Overcast Overcast  
Wind Chill: 16°   Ceiling: 3900
Heat Index: 27°   Visibility: 10mi
Dew Point: 21°   Wind: 13mph
Humidity: 78%   Direction: 270°W
Pressure: 30.02"   Gusts: NA
Location:  42.13°N, 77.65°W
Report Text: KELZ 280132Z AUTO 27011KT 10SM SCT016 BKN039 OVC055 M03/M06 A3002 RMK AO2 SNE23 P0000 T10281061
Loading
Personal Weather Stations






























Interactive Weather Map New forecast layout! Learn more

10-Day Weather Forecast

Advertisements
Track Severe Weather on mobile